sensor_id;sensor_type;location;lat;lon;timestamp;temperature;humidity
10042;DHT22;5061;49.068;12.058;2023-02-19T00:00:06;8.80;99.90
10042;DHT22;5061;49.068;12.058;2023-02-19T00:03:27;8.80;99.90
10042;DHT22;5061;49.068;12.058;2023-02-19T00:06:48;8.80;99.90
10042;DHT22;5061;49.068;12.058;2023-02-19T00:10:09;8.80;99.90
10042;DHT22;5061;49.068;12.058;2023-02-19T00:13:30;8.80;99.90
10042;DHT22;5061;49.068;12.058;2023-02-19T00:16:50;8.70;99.90
10042;DHT22;5061;49.068;12.058;2023-02-19T00:20:11;8.70;99.90
10042;DHT22;5061;49.068;12.058;2023-02-19T00:23:32;8.70;99.90
10042;DHT22;5061;49.068;12.058;2023-02-19T00:26:53;8.70;99.90
10042;DHT22;5061;49.068;12.058;2023-02-19T00:30:13;8.60;99.90
10042;DHT22;5061;49.068;12.058;2023-02-19T00:33:34;8.60;99.90
10042;DHT22;5061;49.068;12.058;2023-02-19T00:36:55;8.60;99.90
10042;DHT22;5061;49.068;12.058;2023-02-19T00:40:16;8.60;99.90
10042;DHT22;5061;49.068;12.058;2023-02-19T00:43:36;8.50;99.90
10042;DHT22;5061;49.068;12.058;2023-02-19T00:47:00;8.50;99.90
10042;DHT22;5061;49.068;12.058;2023-02-19T00:50:24;8.50;99.90
10042;DHT22;5061;49.068;12.058;2023-02-19T00:53:44;8.40;99.90
10042;DHT22;5061;49.068;12.058;2023-02-19T00:57:05;8.40;99.90
10042;DHT22;5061;49.068;12.058;2023-02-19T01:00:26;8.30;99.90
10042;DHT22;5061;49.068;12.058;2023-02-19T01:03:46;8.30;99.90
10042;DHT22;5061;49.068;12.058;2023-02-19T01:07:07;8.20;99.90
10042;DHT22;5061;49.068;12.058;2023-02-19T01:10:28;8.20;99.90
10042;DHT22;5061;49.068;12.058;2023-02-19T01:13:48;8.20;99.90
10042;DHT22;5061;49.068;12.058;2023-02-19T01:17:09;8.20;99.90
10042;DHT22;5061;49.068;12.058;2023-02-19T01:20:30;8.20;99.90
10042;DHT22;5061;49.068;12.058;2023-02-19T01:23:51;8.20;99.90
10042;DHT22;5061;49.068;12.058;2023-02-19T01:27:12;8.20;99.90
10042;DHT22;5061;49.068;12.058;2023-02-19T01:30:34;8.10;99.90
10042;DHT22;5061;49.068;12.058;2023-02-19T01:34:00;8.10;99.90
10042;DHT22;5061;49.068;12.058;2023-02-19T01:37:21;8.10;99.90
10042;DHT22;5061;49.068;12.058;2023-02-19T01:40:41;8.10;99.90
10042;DHT22;5061;49.068;12.058;2023-02-19T01:44:03;8.10;99.90
10042;DHT22;5061;49.068;12.058;2023-02-19T01:47:24;8.10;99.90
10042;DHT22;5061;49.068;12.058;2023-02-19T01:50:49;8.10;99.90
10042;DHT22;5061;49.068;12.058;2023-02-19T01:54:13;8.00;99.90
10042;DHT22;5061;49.068;12.058;2023-02-19T01:57:39;8.00;99.90
10042;DHT22;5061;49.068;12.058;2023-02-19T02:01:03;8.00;99.90
10042;DHT22;5061;49.068;12.058;2023-02-19T02:04:26;8.00;99.90
10042;DHT22;5061;49.068;12.058;2023-02-19T02:07:49;8.00;99.90
10042;DHT22;5061;49.068;12.058;2023-02-19T02:11:28;8.00;99.90
10042;DHT22;5061;49.068;12.058;2023-02-19T02:14:49;8.00;99.90
10042;DHT22;5061;49.068;12.058;2023-02-19T02:18:34;8.00;99.90
10042;DHT22;5061;49.068;12.058;2023-02-19T02:22:18;8.00;99.90
10042;DHT22;5061;49.068;12.058;2023-02-19T02:36:40;8.00;99.90
10042;DHT22;5061;49.068;12.058;2023-02-19T02:40:06;7.90;99.90
10042;DHT22;5061;49.068;12.058;2023-02-19T02:43:27;7.90;99.90
10042;DHT22;5061;49.068;12.058;2023-02-19T02:46:48;7.90;99.90
10042;DHT22;5061;49.068;12.058;2023-02-19T02:50:12;8.00;99.90
10042;DHT22;5061;49.068;12.058;2023-02-19T02:53:40;7.90;99.90
10042;DHT22;5061;49.068;12.058;2023-02-19T02:57:21;7.90;99.90
10042;DHT22;5061;49.068;12.058;2023-02-19T03:00:44;7.90;99.90
10042;DHT22;5061;49.068;12.058;2023-02-19T03:04:29;8.00;99.90
10042;DHT22;5061;49.068;12.058;2023-02-19T03:11:24;7.90;99.90
10042;DHT22;5061;49.068;12.058;2023-02-19T03:15:07;8.00;99.90
10042;DHT22;5061;49.068;12.058;2023-02-19T03:18:50;8.00;99.90
10042;DHT22;5061;49.068;12.058;2023-02-19T03:22:34;8.00;99.90
10042;DHT22;5061;49.068;12.058;2023-02-19T03:25:55;8.00;99.90
10042;DHT22;5061;49.068;12.058;2023-02-19T03:29:29;8.00;99.90
10042;DHT22;5061;49.068;12.058;2023-02-19T03:33:00;8.00;99.90
10042;DHT22;5061;49.068;12.058;2023-02-19T03:36:24;8.00;99.90
10042;DHT22;5061;49.068;12.058;2023-02-19T03:39:47;8.00;99.90
10042;DHT22;5061;49.068;12.058;2023-02-19T03:43:17;8.00;99.90
10042;DHT22;5061;49.068;12.058;2023-02-19T03:46:49;8.00;99.90
10042;DHT22;5061;49.068;12.058;2023-02-19T03:50:42;8.00;99.90
10042;DHT22;5061;49.068;12.058;2023-02-19T03:54:19;8.00;99.90
10042;DHT22;5061;49.068;12.058;2023-02-19T03:58:07;8.00;99.90
10042;DHT22;5061;49.068;12.058;2023-02-19T04:01:45;8.00;99.90
10042;DHT22;5061;49.068;12.058;2023-02-19T04:05:30;8.00;99.90
10042;DHT22;5061;49.068;12.058;2023-02-19T04:08:54;8.00;99.90
10042;DHT22;5061;49.068;12.058;2023-02-19T04:12:16;8.00;99.90
10042;DHT22;5061;49.068;12.058;2023-02-19T04:15:39;8.00;99.90
10042;DHT22;5061;49.068;12.058;2023-02-19T04:19:13;8.00;99.90
10042;DHT22;5061;49.068;12.058;2023-02-19T04:22:36;8.00;99.90
10042;DHT22;5061;49.068;12.058;2023-02-19T04:25:59;8.00;99.90
10042;DHT22;5061;49.068;12.058;2023-02-19T04:29:20;8.00;99.90
10042;DHT22;5061;49.068;12.058;2023-02-19T04:32:41;8.00;99.90
10042;DHT22;5061;49.068;12.058;2023-02-19T04:36:01;8.00;99.90
10042;DHT22;5061;49.068;12.058;2023-02-19T04:39:22;8.00;99.90
10042;DHT22;5061;49.068;12.058;2023-02-19T04:42:43;8.10;99.90
10042;DHT22;5061;49.068;12.058;2023-02-19T04:46:03;8.00;99.90
10042;DHT22;5061;49.068;12.058;2023-02-19T04:49:24;8.00;99.90
10042;DHT22;5061;49.068;12.058;2023-02-19T04:52:45;8.00;99.90
10042;DHT22;5061;49.068;12.058;2023-02-19T04:56:11;8.00;99.90
10042;DHT22;5061;49.068;12.058;2023-02-19T04:59:33;8.00;99.90
10042;DHT22;5061;49.068;12.058;2023-02-19T05:02:53;8.00;99.90
10042;DHT22;5061;49.068;12.058;2023-02-19T05:06:14;8.00;99.90
10042;DHT22;5061;49.068;12.058;2023-02-19T05:09:35;8.00;99.90
10042;DHT22;5061;49.068;12.058;2023-02-19T05:12:55;8.00;99.90
10042;DHT22;5061;49.068;12.058;2023-02-19T05:16:16;8.00;99.90
10042;DHT22;5061;49.068;12.058;2023-02-19T05:19:37;8.00;99.90
10042;DHT22;5061;49.068;12.058;2023-02-19T05:22:57;8.00;99.90
10042;DHT22;5061;49.068;12.058;2023-02-19T05:26:20;7.90;99.90
10042;DHT22;5061;49.068;12.058;2023-02-19T05:29:41;7.90;99.90
10042;DHT22;5061;49.068;12.058;2023-02-19T05:33:02;7.90;99.90
10042;DHT22;5061;49.068;12.058;2023-02-19T05:36:23;7.90;99.90
10042;DHT22;5061;49.068;12.058;2023-02-19T05:39:43;7.90;99.90
10042;DHT22;5061;49.068;12.058;2023-02-19T05:43:04;7.90;99.90
10042;DHT22;5061;49.068;12.058;2023-02-19T05:46:27;7.80;99.90
10042;DHT22;5061;49.068;12.058;2023-02-19T05:49:48;7.80;99.90
10042;DHT22;5061;49.068;12.058;2023-02-19T05:53:09;7.80;99.90
10042;DHT22;5061;49.068;12.058;2023-02-19T05:59:52;7.80;99.90
10042;DHT22;5061;49.068;12.058;2023-02-19T06:03:12;7.80;99.90
10042;DHT22;5061;49.068;12.058;2023-02-19T06:06:33;7.80;99.90
10042;DHT22;5061;49.068;12.058;2023-02-19T06:09:54;7.80;99.90
10042;DHT22;5061;49.068;12.058;2023-02-19T06:13:14;7.80;99.90
10042;DHT22;5061;49.068;12.058;2023-02-19T06:16:35;7.80;99.90
10042;DHT22;5061;49.068;12.058;2023-02-19T06:19:56;7.70;99.90
10042;DHT22;5061;49.068;12.058;2023-02-19T06:23:16;7.70;99.90
10042;DHT22;5061;49.068;12.058;2023-02-19T06:26:37;7.70;99.90
10042;DHT22;5061;49.068;12.058;2023-02-19T06:29:57;7.70;99.90
10042;DHT22;5061;49.068;12.058;2023-02-19T06:33:18;7.70;99.90
10042;DHT22;5061;49.068;12.058;2023-02-19T06:36:39;7.70;99.90
10042;DHT22;5061;49.068;12.058;2023-02-19T06:39:59;7.70;99.90
10042;DHT22;5061;49.068;12.058;2023-02-19T06:43:20;7.70;99.90
10042;DHT22;5061;49.068;12.058;2023-02-19T06:46:41;7.70;99.90
10042;DHT22;5061;49.068;12.058;2023-02-19T06:50:01;7.70;99.90
10042;DHT22;5061;49.068;12.058;2023-02-19T06:53:22;7.70;99.90
10042;DHT22;5061;49.068;12.058;2023-02-19T06:56:43;7.70;99.90
10042;DHT22;5061;49.068;12.058;2023-02-19T07:00:04;7.70;99.90
10042;DHT22;5061;49.068;12.058;2023-02-19T07:03:25;7.70;99.90
10042;DHT22;5061;49.068;12.058;2023-02-19T07:06:45;7.70;99.90
10042;DHT22;5061;49.068;12.058;2023-02-19T07:10:06;7.70;99.90
10042;DHT22;5061;49.068;12.058;2023-02-19T07:13:27;7.70;99.90
10042;DHT22;5061;49.068;12.058;2023-02-19T07:16:48;7.70;99.90
10042;DHT22;5061;49.068;12.058;2023-02-19T07:20:08;7.70;99.90
10042;DHT22;5061;49.068;12.058;2023-02-19T07:23:29;7.60;99.90
10042;DHT22;5061;49.068;12.058;2023-02-19T07:26:50;7.70;99.90
10042;DHT22;5061;49.068;12.058;2023-02-19T07:30:11;7.70;99.90
10042;DHT22;5061;49.068;12.058;2023-02-19T07:33:32;7.70;99.90
10042;DHT22;5061;49.068;12.058;2023-02-19T07:36:52;7.70;99.90
10042;DHT22;5061;49.068;12.058;2023-02-19T07:40:13;7.70;99.90
10042;DHT22;5061;49.068;12.058;2023-02-19T07:43:35;7.70;99.90
10042;DHT22;5061;49.068;12.058;2023-02-19T07:46:56;7.70;99.90
10042;DHT22;5061;49.068;12.058;2023-02-19T07:50:17;7.80;99.90
10042;DHT22;5061;49.068;12.058;2023-02-19T07:53:38;7.80;99.90
10042;DHT22;5061;49.068;12.058;2023-02-19T07:56:58;7.80;99.90
10042;DHT22;5061;49.068;12.058;2023-02-19T08:00:19;7.80;99.90
10042;DHT22;5061;49.068;12.058;2023-02-19T08:03:39;7.90;99.90
10042;DHT22;5061;49.068;12.058;2023-02-19T08:07:00;7.90;99.90
10042;DHT22;5061;49.068;12.058;2023-02-19T08:10:21;7.90;99.90
10042;DHT22;5061;49.068;12.058;2023-02-19T08:14:00;7.90;99.90
10042;DHT22;5061;49.068;12.058;2023-02-19T08:17:21;7.90;99.90
10042;DHT22;5061;49.068;12.058;2023-02-19T08:20:42;7.90;99.90
10042;DHT22;5061;49.068;12.058;2023-02-19T08:24:03;8.00;99.90
10042;DHT22;5061;49.068;12.058;2023-02-19T08:27:24;8.10;99.90
10042;DHT22;5061;49.068;12.058;2023-02-19T08:30:46;8.10;99.90
10042;DHT22;5061;49.068;12.058;2023-02-19T08:34:07;8.10;99.90
10042;DHT22;5061;49.068;12.058;2023-02-19T08:37:27;8.20;99.90
10042;DHT22;5061;49.068;12.058;2023-02-19T08:40:48;8.10;99.90
10042;DHT22;5061;49.068;12.058;2023-02-19T08:44:09;8.20;99.90
10042;DHT22;5061;49.068;12.058;2023-02-19T08:47:30;8.20;99.90
10042;DHT22;5061;49.068;12.058;2023-02-19T08:50:59;8.10;99.90
10042;DHT22;5061;49.068;12.058;2023-02-19T08:54:19;8.20;99.90
10042;DHT22;5061;49.068;12.058;2023-02-19T08:57:40;8.30;99.90
10042;DHT22;5061;49.068;12.058;2023-02-19T09:01:01;8.30;99.90
10042;DHT22;5061;49.068;12.058;2023-02-19T09:04:21;8.30;99.90
10042;DHT22;5061;49.068;12.058;2023-02-19T09:07:42;8.30;99.90
10042;DHT22;5061;49.068;12.058;2023-02-19T09:11:04;8.30;99.90
10042;DHT22;5061;49.068;12.058;2023-02-19T09:14:26;8.30;99.90
10042;DHT22;5061;49.068;12.058;2023-02-19T09:17:51;8.30;99.90
10042;DHT22;5061;49.068;12.058;2023-02-19T09:21:12;8.30;99.90
10042;DHT22;5061;49.068;12.058;2023-02-19T09:24:32;8.30;99.90
10042;DHT22;5061;49.068;12.058;2023-02-19T09:27:54;8.40;99.90
10042;DHT22;5061;49.068;12.058;2023-02-19T09:31:15;8.40;99.90
10042;DHT22;5061;49.068;12.058;2023-02-19T09:34:36;8.40;99.90
10042;DHT22;5061;49.068;12.058;2023-02-19T09:37:59;8.40;99.90
10042;DHT22;5061;49.068;12.058;2023-02-19T09:41:33;8.50;99.90
10042;DHT22;5061;49.068;12.058;2023-02-19T09:44:57;8.50;99.90
10042;DHT22;5061;49.068;12.058;2023-02-19T09:48:18;8.50;99.90
10042;DHT22;5061;49.068;12.058;2023-02-19T09:51:41;8.50;99.90
10042;DHT22;5061;49.068;12.058;2023-02-19T09:58:45;8.40;99.90
10042;DHT22;5061;49.068;12.058;2023-02-19T10:02:19;8.40;99.90
10042;DHT22;5061;49.068;12.058;2023-02-19T10:05:40;8.50;99.90
10042;DHT22;5061;49.068;12.058;2023-02-19T10:09:22;8.50;99.90
10042;DHT22;5061;49.068;12.058;2023-02-19T10:12:47;8.60;99.90
10042;DHT22;5061;49.068;12.058;2023-02-19T10:16:15;8.60;99.90
10042;DHT22;5061;49.068;12.058;2023-02-19T10:19:36;8.70;99.90
10042;DHT22;5061;49.068;12.058;2023-02-19T10:23:03;8.70;99.90
10042;DHT22;5061;49.068;12.058;2023-02-19T10:26:24;8.70;99.90
10042;DHT22;5061;49.068;12.058;2023-02-19T10:29:46;8.80;99.90
10042;DHT22;5061;49.068;12.058;2023-02-19T10:33:13;8.80;99.90
10042;DHT22;5061;49.068;12.058;2023-02-19T10:36:39;8.80;99.90
10042;DHT22;5061;49.068;12.058;2023-02-19T10:40:01;8.80;99.90
10042;DHT22;5061;49.068;12.058;2023-02-19T10:43:25;8.80;99.90
10042;DHT22;5061;49.068;12.058;2023-02-19T10:46:54;8.80;99.90
10042;DHT22;5061;49.068;12.058;2023-02-19T10:50:36;8.80;99.90
10042;DHT22;5061;49.068;12.058;2023-02-19T10:54:32;8.80;99.90
10042;DHT22;5061;49.068;12.058;2023-02-19T10:57:55;8.80;99.90
10042;DHT22;5061;49.068;12.058;2023-02-19T11:01:23;8.70;99.90
10042;DHT22;5061;49.068;12.058;2023-02-19T11:12:03;8.50;99.90
10042;DHT22;5061;49.068;12.058;2023-02-19T11:15:28;8.50;99.90
10042;DHT22;5061;49.068;12.058;2023-02-19T11:18:55;8.60;99.90
10042;DHT22;5061;49.068;12.058;2023-02-19T11:22:29;8.60;99.90
10042;DHT22;5061;49.068;12.058;2023-02-19T11:25:52;8.60;99.90
10042;DHT22;5061;49.068;12.058;2023-02-19T11:29:19;8.60;99.90
10042;DHT22;5061;49.068;12.058;2023-02-19T11:32:42;8.60;99.90
10042;DHT22;5061;49.068;12.058;2023-02-19T11:39:38;8.60;99.90
10042;DHT22;5061;49.068;12.058;2023-02-19T12:13:29;8.60;99.90
10042;DHT22;5061;49.068;12.058;2023-02-19T12:21:05;8.60;99.90
10042;DHT22;5061;49.068;12.058;2023-02-19T12:32:14;8.80;99.90
10042;DHT22;5061;49.068;12.058;2023-02-19T12:43:18;9.00;99.90
10042;DHT22;5061;49.068;12.058;2023-02-19T12:47:14;9.10;99.90
10042;DHT22;5061;49.068;12.058;2023-02-19T12:50:36;9.20;99.90
10042;DHT22;5061;49.068;12.058;2023-02-19T12:57:32;9.10;99.90
10042;DHT22;5061;49.068;12.058;2023-02-19T13:00:57;9.10;99.90
10042;DHT22;5061;49.068;12.058;2023-02-19T13:12:14;8.70;99.90
10042;DHT22;5061;49.068;12.058;2023-02-19T13:16:18;8.60;99.90
10042;DHT22;5061;49.068;12.058;2023-02-19T13:19:37;8.70;99.90
10042;DHT22;5061;49.068;12.058;2023-02-19T13:27:05;8.80;99.90
10042;DHT22;5061;49.068;12.058;2023-02-19T13:37:52;8.90;99.90
10042;DHT22;5061;49.068;12.058;2023-02-19T13:41:19;9.00;99.90
10042;DHT22;5061;49.068;12.058;2023-02-19T13:44:47;9.00;99.90
10042;DHT22;5061;49.068;12.058;2023-02-19T13:51:50;9.00;99.90
10042;DHT22;5061;49.068;12.058;2023-02-19T14:02:41;9.20;99.90
10042;DHT22;5061;49.068;12.058;2023-02-19T14:06:04;9.30;99.90
10042;DHT22;5061;49.068;12.058;2023-02-19T14:13:57;9.50;99.90
10042;DHT22;5061;49.068;12.058;2023-02-19T14:17:41;9.50;99.90
10042;DHT22;5061;49.068;12.058;2023-02-19T14:21:23;9.60;99.90
10042;DHT22;5061;49.068;12.058;2023-02-19T14:24:45;9.50;99.90
10042;DHT22;5061;49.068;12.058;2023-02-19T14:31:32;9.50;99.90
10042;DHT22;5061;49.068;12.058;2023-02-19T14:34:53;9.50;99.90
10042;DHT22;5061;49.068;12.058;2023-02-19T14:38:34;9.40;99.90
10042;DHT22;5061;49.068;12.058;2023-02-19T14:41:59;9.40;99.90
10042;DHT22;5061;49.068;12.058;2023-02-19T14:45:28;9.30;99.90
10042;DHT22;5061;49.068;12.058;2023-02-19T14:48:52;9.30;99.90
10042;DHT22;5061;49.068;12.058;2023-02-19T14:56:21;9.20;99.90
10042;DHT22;5061;49.068;12.058;2023-02-19T15:00:13;9.10;99.90
10042;DHT22;5061;49.068;12.058;2023-02-19T15:03:36;9.00;99.90
10042;DHT22;5061;49.068;12.058;2023-02-19T15:07:00;8.80;99.90
10042;DHT22;5061;49.068;12.058;2023-02-19T15:10:22;8.80;99.90
10042;DHT22;5061;49.068;12.058;2023-02-19T15:14:03;8.70;99.90
10042;DHT22;5061;49.068;12.058;2023-02-19T15:17:32;8.70;99.90
10042;DHT22;5061;49.068;12.058;2023-02-19T15:21:04;8.60;99.90
10042;DHT22;5061;49.068;12.058;2023-02-19T15:24:25;8.60;99.90
10042;DHT22;5061;49.068;12.058;2023-02-19T15:27:47;8.60;99.90
10042;DHT22;5061;49.068;12.058;2023-02-19T15:31:13;8.60;99.90
10042;DHT22;5061;49.068;12.058;2023-02-19T15:34:34;8.50;99.90
10042;DHT22;5061;49.068;12.058;2023-02-19T15:37:55;8.50;99.90
10042;DHT22;5061;49.068;12.058;2023-02-19T15:41:21;8.50;99.90
10042;DHT22;5061;49.068;12.058;2023-02-19T15:45:03;8.50;99.90
10042;DHT22;5061;49.068;12.058;2023-02-19T15:48:35;8.40;99.90
10042;DHT22;5061;49.068;12.058;2023-02-19T15:52:08;8.40;99.90
10042;DHT22;5061;49.068;12.058;2023-02-19T15:55:59;8.30;99.90
10042;DHT22;5061;49.068;12.058;2023-02-19T15:59:42;8.30;99.90
10042;DHT22;5061;49.068;12.058;2023-02-19T16:06:53;8.10;99.90
10042;DHT22;5061;49.068;12.058;2023-02-19T16:10:18;8.00;99.90
10042;DHT22;5061;49.068;12.058;2023-02-19T16:13:40;7.90;99.90
10042;DHT22;5061;49.068;12.058;2023-02-19T16:20:34;7.80;99.90
10042;DHT22;5061;49.068;12.058;2023-02-19T16:24:11;7.70;99.90
10042;DHT22;5061;49.068;12.058;2023-02-19T16:27:39;7.70;99.90
10042;DHT22;5061;49.068;12.058;2023-02-19T16:31:02;7.60;99.90
10042;DHT22;5061;49.068;12.058;2023-02-19T16:34:45;7.60;99.90
10042;DHT22;5061;49.068;12.058;2023-02-19T16:38:14;7.60;99.90
10042;DHT22;5061;49.068;12.058;2023-02-19T16:44:58;7.50;99.90
10042;DHT22;5061;49.068;12.058;2023-02-19T16:48:21;7.40;99.90
10042;DHT22;5061;49.068;12.058;2023-02-19T16:51:43;7.40;99.90
10042;DHT22;5061;49.068;12.058;2023-02-19T16:55:11;7.40;99.90
10042;DHT22;5061;49.068;12.058;2023-02-19T16:58:32;7.30;99.90
10042;DHT22;5061;49.068;12.058;2023-02-19T17:01:53;7.20;99.90
10042;DHT22;5061;49.068;12.058;2023-02-19T17:05:15;7.20;99.90
10042;DHT22;5061;49.068;12.058;2023-02-19T17:08:37;7.20;99.90
10042;DHT22;5061;49.068;12.058;2023-02-19T17:11:58;7.10;99.90
10042;DHT22;5061;49.068;12.058;2023-02-19T17:15:19;7.10;99.90
10042;DHT22;5061;49.068;12.058;2023-02-19T17:18:40;7.00;99.90
10042;DHT22;5061;49.068;12.058;2023-02-19T17:22:01;7.00;99.90
10042;DHT22;5061;49.068;12.058;2023-02-19T17:25:22;7.00;99.90
10042;DHT22;5061;49.068;12.058;2023-02-19T17:28:42;7.00;99.90
10042;DHT22;5061;49.068;12.058;2023-02-19T17:32:03;7.00;99.90
10042;DHT22;5061;49.068;12.058;2023-02-19T17:35:24;7.00;99.90
10042;DHT22;5061;49.068;12.058;2023-02-19T17:38:45;7.00;99.90
10042;DHT22;5061;49.068;12.058;2023-02-19T17:42:06;7.00;99.90
10042;DHT22;5061;49.068;12.058;2023-02-19T17:45:27;7.00;99.90
10042;DHT22;5061;49.068;12.058;2023-02-19T17:48:48;7.00;99.90
10042;DHT22;5061;49.068;12.058;2023-02-19T17:52:08;7.10;99.90
10042;DHT22;5061;49.068;12.058;2023-02-19T17:55:29;7.10;99.90
10042;DHT22;5061;49.068;12.058;2023-02-19T17:58:51;7.10;99.90
10042;DHT22;5061;49.068;12.058;2023-02-19T18:02:11;7.10;99.90
10042;DHT22;5061;49.068;12.058;2023-02-19T18:05:32;7.10;99.90
10042;DHT22;5061;49.068;12.058;2023-02-19T18:08:53;7.20;99.90
10042;DHT22;5061;49.068;12.058;2023-02-19T18:12:13;7.10;99.90
10042;DHT22;5061;49.068;12.058;2023-02-19T18:15:36;7.10;99.90
10042;DHT22;5061;49.068;12.058;2023-02-19T18:18:57;7.10;99.90
10042;DHT22;5061;49.068;12.058;2023-02-19T18:22:20;7.10;99.90
10042;DHT22;5061;49.068;12.058;2023-02-19T18:25:41;7.10;99.90
10042;DHT22;5061;49.068;12.058;2023-02-19T18:29:02;7.10;99.90
10042;DHT22;5061;49.068;12.058;2023-02-19T18:32:24;7.00;99.90
10042;DHT22;5061;49.068;12.058;2023-02-19T18:35:45;7.00;99.90
10042;DHT22;5061;49.068;12.058;2023-02-19T18:39:11;7.00;99.90
10042;DHT22;5061;49.068;12.058;2023-02-19T18:42:32;7.00;99.90
10042;DHT22;5061;49.068;12.058;2023-02-19T18:45:53;7.00;99.90
10042;DHT22;5061;49.068;12.058;2023-02-19T18:49:14;7.00;99.90
10042;DHT22;5061;49.068;12.058;2023-02-19T18:52:35;7.00;99.90
10042;DHT22;5061;49.068;12.058;2023-02-19T18:55:55;7.00;99.90
10042;DHT22;5061;49.068;12.058;2023-02-19T18:59:16;7.00;99.90
10042;DHT22;5061;49.068;12.058;2023-02-19T19:02:37;6.90;99.90
10042;DHT22;5061;49.068;12.058;2023-02-19T19:05:58;7.00;99.90
10042;DHT22;5061;49.068;12.058;2023-02-19T19:09:18;7.00;99.90
10042;DHT22;5061;49.068;12.058;2023-02-19T19:12:39;7.00;99.90
10042;DHT22;5061;49.068;12.058;2023-02-19T19:16:00;7.00;99.90
10042;DHT22;5061;49.068;12.058;2023-02-19T19:19:20;7.00;99.90
10042;DHT22;5061;49.068;12.058;2023-02-19T19:22:41;7.00;99.90
10042;DHT22;5061;49.068;12.058;2023-02-19T19:26:05;7.00;99.90
10042;DHT22;5061;49.068;12.058;2023-02-19T19:29:25;6.90;99.90
10042;DHT22;5061;49.068;12.058;2023-02-19T19:32:47;6.90;99.90
10042;DHT22;5061;49.068;12.058;2023-02-19T19:36:10;6.90;99.90
10042;DHT22;5061;49.068;12.058;2023-02-19T19:39:30;6.90;99.90
10042;DHT22;5061;49.068;12.058;2023-02-19T19:42:51;6.90;99.90
10042;DHT22;5061;49.068;12.058;2023-02-19T19:46:12;6.80;99.90
10042;DHT22;5061;49.068;12.058;2023-02-19T19:49:38;6.80;99.90
10042;DHT22;5061;49.068;12.058;2023-02-19T19:53:00;6.80;99.90
10042;DHT22;5061;49.068;12.058;2023-02-19T19:56:21;6.70;99.90
10042;DHT22;5061;49.068;12.058;2023-02-19T19:59:41;6.70;99.90
10042;DHT22;5061;49.068;12.058;2023-02-19T20:03:02;6.70;99.90
10042;DHT22;5061;49.068;12.058;2023-02-19T20:06:28;6.70;99.90
10042;DHT22;5061;49.068;12.058;2023-02-19T20:09:49;6.80;99.90
10042;DHT22;5061;49.068;12.058;2023-02-19T20:13:09;6.80;99.90
10042;DHT22;5061;49.068;12.058;2023-02-19T20:16:30;6.90;99.90
10042;DHT22;5061;49.068;12.058;2023-02-19T20:19:51;6.90;99.90
10042;DHT22;5061;49.068;12.058;2023-02-19T20:23:11;6.90;99.90
10042;DHT22;5061;49.068;12.058;2023-02-19T20:26:32;6.90;99.90
10042;DHT22;5061;49.068;12.058;2023-02-19T20:29:52;6.90;99.90
10042;DHT22;5061;49.068;12.058;2023-02-19T20:33:13;7.00;99.90
10042;DHT22;5061;49.068;12.058;2023-02-19T20:36:41;7.00;99.90
10042;DHT22;5061;49.068;12.058;2023-02-19T20:40:02;6.90;99.90
10042;DHT22;5061;49.068;12.058;2023-02-19T20:43:23;6.90;99.90
10042;DHT22;5061;49.068;12.058;2023-02-19T20:46:46;6.90;99.90
10042;DHT22;5061;49.068;12.058;2023-02-19T20:50:07;6.90;99.90
10042;DHT22;5061;49.068;12.058;2023-02-19T20:53:29;7.00;99.90
10042;DHT22;5061;49.068;12.058;2023-02-19T20:56:53;6.90;99.90
10042;DHT22;5061;49.068;12.058;2023-02-19T21:00:14;6.90;99.90
10042;DHT22;5061;49.068;12.058;2023-02-19T21:03:36;7.00;99.90
10042;DHT22;5061;49.068;12.058;2023-02-19T21:07:00;7.00;99.90
10042;DHT22;5061;49.068;12.058;2023-02-19T21:10:20;6.90;99.90
10042;DHT22;5061;49.068;12.058;2023-02-19T21:13:41;7.00;99.90
10042;DHT22;5061;49.068;12.058;2023-02-19T21:17:02;6.90;99.90
10042;DHT22;5061;49.068;12.058;2023-02-19T21:20:23;6.90;99.90
10042;DHT22;5061;49.068;12.058;2023-02-19T21:23:44;6.90;99.90
10042;DHT22;5061;49.068;12.058;2023-02-19T21:27:04;6.90;99.90
10042;DHT22;5061;49.068;12.058;2023-02-19T21:30:25;6.90;99.90
10042;DHT22;5061;49.068;12.058;2023-02-19T21:33:46;6.90;99.90
10042;DHT22;5061;49.068;12.058;2023-02-19T21:37:06;6.80;99.90
10042;DHT22;5061;49.068;12.058;2023-02-19T21:40:27;6.80;99.90
10042;DHT22;5061;49.068;12.058;2023-02-19T21:43:49;6.80;99.90
10042;DHT22;5061;49.068;12.058;2023-02-19T21:47:12;6.80;99.90
10042;DHT22;5061;49.068;12.058;2023-02-19T21:50:33;6.70;99.90
10042;DHT22;5061;49.068;12.058;2023-02-19T21:53:54;6.70;99.90
10042;DHT22;5061;49.068;12.058;2023-02-19T21:57:23;6.70;99.90
10042;DHT22;5061;49.068;12.058;2023-02-19T22:00:53;6.60;99.90
10042;DHT22;5061;49.068;12.058;2023-02-19T22:04:16;6.60;99.90
10042;DHT22;5061;49.068;12.058;2023-02-19T22:07:37;6.60;99.90
10042;DHT22;5061;49.068;12.058;2023-02-19T22:10:58;6.50;99.90
10042;DHT22;5061;49.068;12.058;2023-02-19T22:14:18;6.50;99.90
10042;DHT22;5061;49.068;12.058;2023-02-19T22:17:39;6.50;99.90
10042;DHT22;5061;49.068;12.058;2023-02-19T22:21:00;6.50;99.90
10042;DHT22;5061;49.068;12.058;2023-02-19T22:24:21;6.50;99.90
10042;DHT22;5061;49.068;12.058;2023-02-19T22:27:42;6.50;99.90
10042;DHT22;5061;49.068;12.058;2023-02-19T22:31:02;6.50;99.90
10042;DHT22;5061;49.068;12.058;2023-02-19T22:34:23;6.40;99.90
10042;DHT22;5061;49.068;12.058;2023-02-19T22:37:44;6.40;99.90
10042;DHT22;5061;49.068;12.058;2023-02-19T22:41:04;6.40;99.90
10042;DHT22;5061;49.068;12.058;2023-02-19T22:44:25;6.40;99.90
10042;DHT22;5061;49.068;12.058;2023-02-19T22:47:45;6.50;99.90
10042;DHT22;5061;49.068;12.058;2023-02-19T22:51:14;6.40;99.90
10042;DHT22;5061;49.068;12.058;2023-02-19T22:54:36;6.40;99.90
10042;DHT22;5061;49.068;12.058;2023-02-19T22:57:56;6.40;99.90
10042;DHT22;5061;49.068;12.058;2023-02-19T23:01:18;6.50;99.90
10042;DHT22;5061;49.068;12.058;2023-02-19T23:04:38;6.40;99.90
10042;DHT22;5061;49.068;12.058;2023-02-19T23:07:59;6.40;99.90
10042;DHT22;5061;49.068;12.058;2023-02-19T23:11:25;6.50;99.90
10042;DHT22;5061;49.068;12.058;2023-02-19T23:14:46;6.50;99.90
10042;DHT22;5061;49.068;12.058;2023-02-19T23:18:06;6.40;99.90
10042;DHT22;5061;49.068;12.058;2023-02-19T23:21:27;6.40;99.90
10042;DHT22;5061;49.068;12.058;2023-02-19T23:24:48;6.40;99.90
10042;DHT22;5061;49.068;12.058;2023-02-19T23:28:08;6.40;99.90
10042;DHT22;5061;49.068;12.058;2023-02-19T23:31:29;6.30;99.90
10042;DHT22;5061;49.068;12.058;2023-02-19T23:34:50;6.40;99.90
10042;DHT22;5061;49.068;12.058;2023-02-19T23:38:10;6.30;99.90
10042;DHT22;5061;49.068;12.058;2023-02-19T23:41:31;6.30;99.90
10042;DHT22;5061;49.068;12.058;2023-02-19T23:44:52;6.30;99.90
10042;DHT22;5061;49.068;12.058;2023-02-19T23:48:12;6.30;99.90
10042;DHT22;5061;49.068;12.058;2023-02-19T23:51:33;6.30;99.90
10042;DHT22;5061;49.068;12.058;2023-02-19T23:54:54;6.30;99.90
10042;DHT22;5061;49.068;12.058;2023-02-19T23:58:16;6.30;99.90
